sensor_id;sensor_type;location;lat;lon;timestamp;pressure;altitude;pressure_sealevel;temperature;humidity
4346;BME280;2186;49.866;7.986;2022-12-10T00:01:10;99256.06;;;3.17;99.43
4346;BME280;2186;49.866;7.986;2022-12-10T00:03:37;99270.22;;;3.05;99.39
4346;BME280;2186;49.866;7.986;2022-12-10T00:06:06;99268.66;;;2.93;100.00
4346;BME280;2186;49.866;7.986;2022-12-10T00:08:34;99268.41;;;3.09;99.28
4346;BME280;2186;49.866;7.986;2022-12-10T00:11:05;99270.19;;;3.08;98.35
4346;BME280;2186;49.866;7.986;2022-12-10T00:13:33;99275.56;;;2.97;99.28
4346;BME280;2186;49.866;7.986;2022-12-10T00:16:00;99273.66;;;3.09;98.43
4346;BME280;2186;49.866;7.986;2022-12-10T00:18:26;99271.38;;;2.84;99.33
4346;BME280;2186;49.866;7.986;2022-12-10T00:20:54;99268.75;;;2.86;100.00
4346;BME280;2186;49.866;7.986;2022-12-10T00:23:20;99267.81;;;2.91;100.00
4346;BME280;2186;49.866;7.986;2022-12-10T00:25:49;99261.72;;;2.86;99.63
4346;BME280;2186;49.866;7.986;2022-12-10T00:28:15;99260.63;;;3.04;99.85
4346;BME280;2186;49.866;7.986;2022-12-10T00:30:41;99264.19;;;2.98;99.06
4346;BME280;2186;49.866;7.986;2022-12-10T00:33:08;99271.06;;;3.07;98.78
4346;BME280;2186;49.866;7.986;2022-12-10T00:35:35;99267.03;;;3.40;97.43
4346;BME280;2186;49.866;7.986;2022-12-10T00:38:03;99269.72;;;3.37;97.02
4346;BME280;2186;49.866;7.986;2022-12-10T00:40:29;99269.88;;;3.30;96.83
4346;BME280;2186;49.866;7.986;2022-12-10T00:42:56;99271.06;;;3.07;97.28
4346;BME280;2186;49.866;7.986;2022-12-10T00:45:22;99268.16;;;3.25;97.70
4346;BME280;2186;49.866;7.986;2022-12-10T00:47:49;99272.66;;;3.17;97.30
4346;BME280;2186;49.866;7.986;2022-12-10T00:50:15;99263.50;;;2.84;98.55
4346;BME280;2186;49.866;7.986;2022-12-10T00:52:41;99262.47;;;2.96;98.32
4346;BME280;2186;49.866;7.986;2022-12-10T00:55:08;99264.16;;;3.00;98.76
4346;BME280;2186;49.866;7.986;2022-12-10T00:57:34;99274.47;;;3.12;97.66
4346;BME280;2186;49.866;7.986;2022-12-10T01:00:01;99265.97;;;2.96;98.16
4346;BME280;2186;49.866;7.986;2022-12-10T01:02:27;99268.31;;;3.15;97.64
4346;BME280;2186;49.866;7.986;2022-12-10T01:04:54;99274.53;;;3.09;97.93
4346;BME280;2186;49.866;7.986;2022-12-10T01:07:20;99266.25;;;2.78;98.47
4346;BME280;2186;49.866;7.986;2022-12-10T01:09:47;99264.31;;;2.91;99.18
4346;BME280;2186;49.866;7.986;2022-12-10T01:12:13;99272.28;;;2.83;99.32
4346;BME280;2186;49.866;7.986;2022-12-10T01:14:39;99274.38;;;2.57;99.35
4346;BME280;2186;49.866;7.986;2022-12-10T01:17:07;99277.66;;;2.76;100.00
4346;BME280;2186;49.866;7.986;2022-12-10T01:19:34;99276.78;;;2.74;99.41
4346;BME280;2186;49.866;7.986;2022-12-10T01:22:00;99283.81;;;2.72;99.57
4346;BME280;2186;49.866;7.986;2022-12-10T01:24:27;99291.81;;;2.59;99.54
4346;BME280;2186;49.866;7.986;2022-12-10T01:26:54;99284.69;;;2.71;99.97
4346;BME280;2186;49.866;7.986;2022-12-10T01:29:21;99295.28;;;2.64;99.64
4346;BME280;2186;49.866;7.986;2022-12-10T01:31:51;99302.31;;;2.62;100.00
4346;BME280;2186;49.866;7.986;2022-12-10T01:34:18;99302.28;;;2.64;100.00
4346;BME280;2186;49.866;7.986;2022-12-10T01:36:49;99312.97;;;2.49;100.00
4346;BME280;2186;49.866;7.986;2022-12-10T01:39:16;99309.50;;;2.44;100.00
4346;BME280;2186;49.866;7.986;2022-12-10T01:41:55;99311.31;;;2.40;100.00
4346;BME280;2186;49.866;7.986;2022-12-10T01:46:51;99319.91;;;2.53;100.00
4346;BME280;2186;49.866;7.986;2022-12-10T01:49:23;99317.31;;;2.50;100.00
4346;BME280;2186;49.866;7.986;2022-12-10T01:51:53;99322.59;;;2.48;100.00
4346;BME280;2186;49.866;7.986;2022-12-10T01:54:33;99320.84;;;2.47;100.00
4346;BME280;2186;49.866;7.986;2022-12-10T01:57:02;99320.00;;;2.44;100.00
4346;BME280;2186;49.866;7.986;2022-12-10T01:59:30;99320.84;;;2.47;100.00
4346;BME280;2186;49.866;7.986;2022-12-10T02:05:06;99324.50;;;2.34;100.00
4346;BME280;2186;49.866;7.986;2022-12-10T02:13:17;99319.97;;;2.47;99.99
4346;BME280;2186;49.866;7.986;2022-12-10T02:15:50;99321.81;;;2.38;100.00
4346;BME280;2186;49.866;7.986;2022-12-10T02:18:21;99326.97;;;2.48;100.00
4346;BME280;2186;49.866;7.986;2022-12-10T02:20:54;99324.34;;;2.45;100.00
4346;BME280;2186;49.866;7.986;2022-12-10T02:23:27;99321.00;;;2.33;100.00
4346;BME280;2186;49.866;7.986;2022-12-10T02:26:24;99324.38;;;2.43;100.00
4346;BME280;2186;49.866;7.986;2022-12-10T02:31:25;99321.78;;;2.40;100.00
4346;BME280;2186;49.866;7.986;2022-12-10T02:33:55;99319.34;;;2.25;100.00
4346;BME280;2186;49.866;7.986;2022-12-10T02:36:24;99315.66;;;2.41;100.00
4346;BME280;2186;49.866;7.986;2022-12-10T02:38:52;99316.56;;;2.38;100.00
4346;BME280;2186;49.866;7.986;2022-12-10T02:41:23;99314.91;;;2.30;100.00
4346;BME280;2186;49.866;7.986;2022-12-10T02:43:53;99318.47;;;2.24;100.00
4346;BME280;2186;49.866;7.986;2022-12-10T02:46:23;99322.91;;;2.18;100.00
4346;BME280;2186;49.866;7.986;2022-12-10T02:48:51;99323.81;;;2.15;100.00
4346;BME280;2186;49.866;7.986;2022-12-10T02:51:18;99317.75;;;2.10;100.00
4346;BME280;2186;49.866;7.986;2022-12-10T02:53:45;99319.44;;;2.16;100.00
4346;BME280;2186;49.866;7.986;2022-12-10T02:56:27;99319.53;;;2.05;100.00
4346;BME280;2186;49.866;7.986;2022-12-10T03:07:14;99327.53;;;1.91;100.00
4346;BME280;2186;49.866;7.986;2022-12-10T03:09:52;99323.25;;;1.84;100.00
4346;BME280;2186;49.866;7.986;2022-12-10T03:12:24;99321.47;;;1.86;100.00
4346;BME280;2186;49.866;7.986;2022-12-10T03:14:58;99316.31;;;1.78;100.00
4346;BME280;2186;49.866;7.986;2022-12-10T03:17:28;99313.75;;;1.71;100.00
4346;BME280;2186;49.866;7.986;2022-12-10T03:19:57;99315.66;;;1.51;100.00
4346;BME280;2186;49.866;7.986;2022-12-10T03:22:25;99324.31;;;1.65;100.00
4346;BME280;2186;49.866;7.986;2022-12-10T03:24:53;99310.44;;;1.52;100.00
4346;BME280;2186;49.866;7.986;2022-12-10T03:27:21;99312.94;;;1.66;100.00
4346;BME280;2186;49.866;7.986;2022-12-10T03:29:54;99325.28;;;1.48;100.00
4346;BME280;2186;49.866;7.986;2022-12-10T03:32:25;99322.53;;;1.64;100.00
4346;BME280;2186;49.866;7.986;2022-12-10T03:34:54;99319.16;;;1.54;100.00
4346;BME280;2186;49.866;7.986;2022-12-10T03:37:23;99318.25;;;1.55;100.00
4346;BME280;2186;49.866;7.986;2022-12-10T03:39:50;99317.34;;;1.59;100.00
4346;BME280;2186;49.866;7.986;2022-12-10T03:42:17;99322.72;;;1.42;100.00
4346;BME280;2186;49.866;7.986;2022-12-10T03:44:44;99312.13;;;1.58;100.00
4346;BME280;2186;49.866;7.986;2022-12-10T03:47:13;99315.63;;;1.57;100.00
4346;BME280;2186;49.866;7.986;2022-12-10T03:49:41;99316.47;;;1.60;100.00
4346;BME280;2186;49.866;7.986;2022-12-10T03:52:08;99318.19;;;1.66;100.00
4346;BME280;2186;49.866;7.986;2022-12-10T03:54:34;99326.09;;;1.58;100.00
4346;BME280;2186;49.866;7.986;2022-12-10T03:57:01;99332.16;;;1.62;100.00
4346;BME280;2186;49.866;7.986;2022-12-10T03:59:27;99326.03;;;1.67;100.00
4346;BME280;2186;49.866;7.986;2022-12-10T04:01:54;99334.66;;;1.80;100.00
4346;BME280;2186;49.866;7.986;2022-12-10T04:04:20;99331.31;;;1.60;100.00
4346;BME280;2186;49.866;7.986;2022-12-10T04:06:47;99329.56;;;1.60;100.00
4346;BME280;2186;49.866;7.986;2022-12-10T04:09:15;99332.34;;;1.39;100.00
4346;BME280;2186;49.866;7.986;2022-12-10T04:11:42;99332.38;;;1.33;100.00
4346;BME280;2186;49.866;7.986;2022-12-10T04:14:10;99334.88;;;1.51;100.00
4346;BME280;2186;49.866;7.986;2022-12-10T04:16:55;99335.84;;;1.36;100.00
4346;BME280;2186;49.866;7.986;2022-12-10T04:19:22;99333.25;;;1.32;100.00
4346;BME280;2186;49.866;7.986;2022-12-10T04:21:48;99337.66;;;1.28;100.00
4346;BME280;2186;49.866;7.986;2022-12-10T04:24:35;99346.41;;;1.24;100.00
4346;BME280;2186;49.866;7.986;2022-12-10T04:27:23;99349.88;;;1.29;100.00
4346;BME280;2186;49.866;7.986;2022-12-10T04:29:51;99351.59;;;1.30;100.00
4346;BME280;2186;49.866;7.986;2022-12-10T04:32:17;99353.31;;;1.34;100.00
4346;BME280;2186;49.866;7.986;2022-12-10T04:34:44;99351.50;;;1.45;100.00
4346;BME280;2186;49.866;7.986;2022-12-10T04:37:11;99354.91;;;1.57;99.81
4346;BME280;2186;49.866;7.986;2022-12-10T04:39:38;99348.84;;;1.48;100.00
4346;BME280;2186;49.866;7.986;2022-12-10T04:42:05;99357.50;;;1.58;99.50
4346;BME280;2186;49.866;7.986;2022-12-10T04:44:32;99355.06;;;1.38;99.74
4346;BME280;2186;49.866;7.986;2022-12-10T04:46:59;99352.34;;;1.46;100.00
4346;BME280;2186;49.866;7.986;2022-12-10T04:49:25;99347.06;;;1.51;100.00
4346;BME280;2186;49.866;7.986;2022-12-10T04:51:52;99353.38;;;1.28;100.00
4346;BME280;2186;49.866;7.986;2022-12-10T04:54:19;99356.91;;;1.19;100.00
4346;BME280;2186;49.866;7.986;2022-12-10T04:56:46;99354.22;;;1.30;100.00
4346;BME280;2186;49.866;7.986;2022-12-10T04:59:14;99365.50;;;1.35;100.00
4346;BME280;2186;49.866;7.986;2022-12-10T05:01:41;99365.50;;;1.35;100.00
4346;BME280;2186;49.866;7.986;2022-12-10T05:04:12;99363.84;;;1.28;100.00
4346;BME280;2186;49.866;7.986;2022-12-10T05:06:39;99368.13;;;1.38;100.00
4346;BME280;2186;49.866;7.986;2022-12-10T05:09:06;99363.75;;;1.40;100.00
4346;BME280;2186;49.866;7.986;2022-12-10T05:11:33;99375.03;;;1.53;100.00
4346;BME280;2186;49.866;7.986;2022-12-10T05:14:00;99362.78;;;1.54;99.66
4346;BME280;2186;49.866;7.986;2022-12-10T05:16:29;99369.81;;;1.47;100.00
4346;BME280;2186;49.866;7.986;2022-12-10T05:18:57;99375.97;;;1.37;100.00
4346;BME280;2186;49.866;7.986;2022-12-10T05:21:25;99375.06;;;1.45;100.00
4346;BME280;2186;49.866;7.986;2022-12-10T05:24:12;99382.00;;;1.49;99.94
4346;BME280;2186;49.866;7.986;2022-12-10T05:26:38;99379.31;;;1.65;99.62
4346;BME280;2186;49.866;7.986;2022-12-10T05:29:05;99381.84;;;1.71;98.61
4346;BME280;2186;49.866;7.986;2022-12-10T05:31:31;99379.28;;;1.68;97.50
4346;BME280;2186;49.866;7.986;2022-12-10T05:33:58;99382.78;;;1.64;97.82
4346;BME280;2186;49.866;7.986;2022-12-10T05:36:29;99387.31;;;1.42;99.08
4346;BME280;2186;49.866;7.986;2022-12-10T05:38:58;99387.16;;;1.60;98.75
4346;BME280;2186;49.866;7.986;2022-12-10T05:41:29;99388.97;;;1.51;98.05
4346;BME280;2186;49.866;7.986;2022-12-10T05:43:57;99396.97;;;1.29;99.18
4346;BME280;2186;49.866;7.986;2022-12-10T05:46:27;99403.13;;;1.24;99.23
4346;BME280;2186;49.866;7.986;2022-12-10T05:48:54;99403.06;;;1.31;98.77
4346;BME280;2186;49.866;7.986;2022-12-10T05:51:23;99409.34;;;0.98;98.80
4346;BME280;2186;49.866;7.986;2022-12-10T05:53:50;99402.41;;;0.89;99.42
4346;BME280;2186;49.866;7.986;2022-12-10T05:56:19;99407.69;;;0.74;100.00
4346;BME280;2186;49.866;7.986;2022-12-10T05:58:49;99408.56;;;0.75;100.00
4346;BME280;2186;49.866;7.986;2022-12-10T06:01:22;99405.03;;;0.89;100.00
4346;BME280;2186;49.866;7.986;2022-12-10T06:03:49;99418.19;;;0.62;100.00
4346;BME280;2186;49.866;7.986;2022-12-10T06:06:38;99425.19;;;0.57;100.00
4346;BME280;2186;49.866;7.986;2022-12-10T06:09:07;99420.81;;;0.62;100.00
4346;BME280;2186;49.866;7.986;2022-12-10T06:11:36;99419.09;;;0.40;100.00
4346;BME280;2186;49.866;7.986;2022-12-10T06:14:03;99419.13;;;0.31;100.00
4346;BME280;2186;49.866;7.986;2022-12-10T06:16:29;99428.72;;;0.10;100.00
4346;BME280;2186;49.866;7.986;2022-12-10T06:18:56;99426.13;;;0.15;100.00
4346;BME280;2186;49.866;7.986;2022-12-10T06:21:23;99425.25;;;0.17;100.00
4346;BME280;2186;49.866;7.986;2022-12-10T06:23:50;99424.34;;;0.37;100.00
4346;BME280;2186;49.866;7.986;2022-12-10T06:26:23;99431.28;;;0.57;100.00
4346;BME280;2186;49.866;7.986;2022-12-10T06:28:50;99432.03;;;0.95;100.00
4346;BME280;2186;49.866;7.986;2022-12-10T06:31:17;99434.78;;;0.55;100.00
4346;BME280;2186;49.866;7.986;2022-12-10T06:33:44;99427.59;;;1.07;99.21
4346;BME280;2186;49.866;7.986;2022-12-10T06:36:12;99442.56;;;0.73;100.00
4346;BME280;2186;49.866;7.986;2022-12-10T06:38:40;99445.16;;;0.82;100.00
4346;BME280;2186;49.866;7.986;2022-12-10T06:41:09;99449.56;;;0.64;100.00
4346;BME280;2186;49.866;7.986;2022-12-10T06:43:36;99444.41;;;0.28;100.00
4346;BME280;2186;49.866;7.986;2022-12-10T06:46:11;99448.78;;;0.02;100.00
4346;BME280;2186;49.866;7.986;2022-12-10T06:48:39;99447.84;;;0.49;100.00
4346;BME280;2186;49.866;7.986;2022-12-10T06:51:06;99456.63;;;0.01;100.00
4346;BME280;2186;49.866;7.986;2022-12-10T06:53:34;99459.19;;;-0.18;100.00
4346;BME280;2186;49.866;7.986;2022-12-10T06:56:02;99460.06;;;-0.23;100.00
4346;BME280;2186;49.866;7.986;2022-12-10T06:58:30;99464.41;;;-0.27;100.00
4346;BME280;2186;49.866;7.986;2022-12-10T07:01:09;99466.09;;;-0.53;100.00
4346;BME280;2186;49.866;7.986;2022-12-10T07:03:36;99460.88;;;-0.49;100.00
4346;BME280;2186;49.866;7.986;2022-12-10T07:06:03;99467.84;;;-0.45;100.00
4346;BME280;2186;49.866;7.986;2022-12-10T07:08:30;99471.28;;;-0.55;100.00
4346;BME280;2186;49.866;7.986;2022-12-10T07:10:56;99479.13;;;-0.67;100.00
4346;BME280;2186;49.866;7.986;2022-12-10T07:13:23;99477.38;;;-0.65;100.00
4346;BME280;2186;49.866;7.986;2022-12-10T07:15:55;99474.72;;;-0.76;100.00
4346;BME280;2186;49.866;7.986;2022-12-10T07:18:22;99482.56;;;-0.71;100.00
4346;BME280;2186;49.866;7.986;2022-12-10T07:20:48;99482.56;;;-0.74;100.00
4346;BME280;2186;49.866;7.986;2022-12-10T07:23:15;99484.25;;;-0.82;100.00
4346;BME280;2186;49.866;7.986;2022-12-10T07:25:41;99487.75;;;-0.80;100.00
4346;BME280;2186;49.866;7.986;2022-12-10T07:28:08;99492.06;;;-0.92;100.00
4346;BME280;2186;49.866;7.986;2022-12-10T07:30:34;99482.44;;;-1.05;100.00
4346;BME280;2186;49.866;7.986;2022-12-10T07:33:01;99499.88;;;-0.95;100.00
4346;BME280;2186;49.866;7.986;2022-12-10T07:35:27;99497.34;;;-0.75;100.00
4346;BME280;2186;49.866;7.986;2022-12-10T07:37:54;99499.03;;;-0.86;100.00
4346;BME280;2186;49.866;7.986;2022-12-10T07:40:20;99495.59;;;-0.70;100.00
4346;BME280;2186;49.866;7.986;2022-12-10T07:42:47;99495.59;;;-0.74;100.00
4346;BME280;2186;49.866;7.986;2022-12-10T07:45:13;99499.06;;;-0.78;100.00
4346;BME280;2186;49.866;7.986;2022-12-10T07:47:40;99502.56;;;-0.76;100.00
4346;BME280;2186;49.866;7.986;2022-12-10T07:50:06;99500.75;;;-0.90;100.00
4346;BME280;2186;49.866;7.986;2022-12-10T07:52:33;99505.97;;;-0.86;100.00
4346;BME280;2186;49.866;7.986;2022-12-10T07:55:00;99511.13;;;-0.99;100.00
4346;BME280;2186;49.866;7.986;2022-12-10T07:57:28;99506.78;;;-0.97;100.00
4346;BME280;2186;49.866;7.986;2022-12-10T07:59:55;99513.72;;;-1.00;100.00
4346;BME280;2186;49.866;7.986;2022-12-10T08:02:21;99516.34;;;-1.03;100.00
4346;BME280;2186;49.866;7.986;2022-12-10T08:04:48;99516.41;;;-0.93;100.00
4346;BME280;2186;49.866;7.986;2022-12-10T08:07:14;99518.22;;;-0.72;100.00
4346;BME280;2186;49.866;7.986;2022-12-10T08:09:41;99524.34;;;-0.68;100.00
4346;BME280;2186;49.866;7.986;2022-12-10T08:12:07;99525.16;;;-0.77;100.00
4346;BME280;2186;49.866;7.986;2022-12-10T08:14:34;99518.13;;;-0.93;100.00
4346;BME280;2186;49.866;7.986;2022-12-10T08:17:00;99531.19;;;-0.88;100.00
4346;BME280;2186;49.866;7.986;2022-12-10T08:19:26;99534.59;;;-1.00;100.00
4346;BME280;2186;49.866;7.986;2022-12-10T08:21:57;99530.38;;;-0.74;100.00
4346;BME280;2186;49.866;7.986;2022-12-10T08:24:23;99527.88;;;-0.43;100.00
4346;BME280;2186;49.866;7.986;2022-12-10T08:26:49;99533.97;;;-0.52;100.00
4346;BME280;2186;49.866;7.986;2022-12-10T08:29:16;99538.25;;;-0.65;100.00
4346;BME280;2186;49.866;7.986;2022-12-10T08:31:42;99533.94;;;-0.55;100.00
4346;BME280;2186;49.866;7.986;2022-12-10T08:34:14;99535.75;;;-0.40;100.00
4346;BME280;2186;49.866;7.986;2022-12-10T08:36:41;99538.31;;;-0.42;100.00
4346;BME280;2186;49.866;7.986;2022-12-10T08:39:07;99541.88;;;-0.21;100.00
4346;BME280;2186;49.866;7.986;2022-12-10T08:41:36;99535.81;;;-0.04;100.00
4346;BME280;2186;49.866;7.986;2022-12-10T08:44:03;99548.00;;;-0.10;100.00
4346;BME280;2186;49.866;7.986;2022-12-10T08:46:29;99543.66;;;-0.08;100.00
4346;BME280;2186;49.866;7.986;2022-12-10T08:48:56;99543.66;;;-0.11;100.00
4346;BME280;2186;49.866;7.986;2022-12-10T08:51:22;99553.22;;;-0.01;100.00
4346;BME280;2186;49.866;7.986;2022-12-10T08:53:49;99551.50;;;-0.04;100.00
4346;BME280;2186;49.866;7.986;2022-12-10T08:56:16;99548.03;;;0.08;100.00
4346;BME280;2186;49.866;7.986;2022-12-10T08:58:42;99553.25;;;0.10;100.00
4346;BME280;2186;49.866;7.986;2022-12-10T09:01:11;99560.25;;;0.20;100.00
4346;BME280;2186;49.866;7.986;2022-12-10T09:03:38;99557.66;;;0.32;100.00
4346;BME280;2186;49.866;7.986;2022-12-10T09:06:07;99562.88;;;0.43;100.00
4346;BME280;2186;49.866;7.986;2022-12-10T09:08:34;99561.13;;;0.48;100.00
4346;BME280;2186;49.866;7.986;2022-12-10T09:11:06;99553.28;;;0.46;100.00
4346;BME280;2186;49.866;7.986;2022-12-10T09:13:33;99555.91;;;0.46;100.00
4346;BME280;2186;49.866;7.986;2022-12-10T09:15:59;99549.81;;;0.32;100.00
4346;BME280;2186;49.866;7.986;2022-12-10T09:18:26;99557.63;;;0.52;100.00
4346;BME280;2186;49.866;7.986;2022-12-10T09:20:52;99562.88;;;0.49;100.00
4346;BME280;2186;49.866;7.986;2022-12-10T09:23:19;99562.88;;;0.61;100.00
4346;BME280;2186;49.866;7.986;2022-12-10T09:25:45;99560.25;;;0.67;100.00
4346;BME280;2186;49.866;7.986;2022-12-10T09:28:12;99567.22;;;0.76;100.00
4346;BME280;2186;49.866;7.986;2022-12-10T09:30:38;99560.22;;;0.90;100.00
4346;BME280;2186;49.866;7.986;2022-12-10T09:33:05;99556.66;;;1.20;100.00
4346;BME280;2186;49.866;7.986;2022-12-10T09:35:31;99552.31;;;1.17;100.00
4346;BME280;2186;49.866;7.986;2022-12-10T09:37:58;99557.50;;;1.36;100.00
4346;BME280;2186;49.866;7.986;2022-12-10T09:43:44;99554.59;;;1.97;100.00
4346;BME280;2186;49.866;7.986;2022-12-10T09:49:06;99548.41;;;2.10;99.07
4346;BME280;2186;49.866;7.986;2022-12-10T09:51:38;99538.59;;;2.36;98.79
4346;BME280;2186;49.866;7.986;2022-12-10T09:54:18;99547.41;;;2.26;98.64
4346;BME280;2186;49.866;7.986;2022-12-10T09:56:45;99542.13;;;2.34;97.32
4346;BME280;2186;49.866;7.986;2022-12-10T09:59:18;99542.66;;;2.71;96.48
4346;BME280;2186;49.866;7.986;2022-12-10T10:01:50;99537.47;;;2.66;97.80
4346;BME280;2186;49.866;7.986;2022-12-10T10:04:22;99537.47;;;2.68;96.87
4346;BME280;2186;49.866;7.986;2022-12-10T10:06:49;99545.28;;;2.76;96.80
4346;BME280;2186;49.866;7.986;2022-12-10T10:09:16;99548.69;;;2.82;96.21
4346;BME280;2186;49.866;7.986;2022-12-10T10:11:44;99539.88;;;2.91;95.83
4346;BME280;2186;49.866;7.986;2022-12-10T10:14:24;99550.41;;;2.88;96.22
4346;BME280;2186;49.866;7.986;2022-12-10T10:16:55;99545.03;;;2.98;95.43
4346;BME280;2186;49.866;7.986;2022-12-10T10:19:28;99545.81;;;3.08;95.81
4346;BME280;2186;49.866;7.986;2022-12-10T10:21:55;99546.69;;;3.09;94.89
4346;BME280;2186;49.866;7.986;2022-12-10T10:24:34;99546.63;;;3.13;94.35
4346;BME280;2186;49.866;7.986;2022-12-10T10:27:14;99550.09;;;3.18;94.44
4346;BME280;2186;49.866;7.986;2022-12-10T10:29:44;99548.16;;;3.34;93.92
4346;BME280;2186;49.866;7.986;2022-12-10T10:32:23;99545.56;;;3.33;93.82
4346;BME280;2186;49.866;7.986;2022-12-10T10:34:55;99543.81;;;3.32;94.20
4346;BME280;2186;49.866;7.986;2022-12-10T10:37:29;99536.66;;;3.46;94.30
4346;BME280;2186;49.866;7.986;2022-12-10T10:39:57;99541.88;;;3.47;94.07
4346;BME280;2186;49.866;7.986;2022-12-10T10:42:36;99546.13;;;3.56;93.53
4346;BME280;2186;49.866;7.986;2022-12-10T10:45:06;99550.78;;;3.36;92.95
4346;BME280;2186;49.866;7.986;2022-12-10T10:48:13;99548.06;;;3.43;93.23
4346;BME280;2186;49.866;7.986;2022-12-10T10:50:43;99554.94;;;3.53;92.79
4346;BME280;2186;49.866;7.986;2022-12-10T10:55:52;99551.63;;;3.36;93.46
4346;BME280;2186;49.866;7.986;2022-12-10T10:58:20;99544.44;;;3.52;92.52
4346;BME280;2186;49.866;7.986;2022-12-10T11:00:56;99551.78;;;3.22;93.26
4346;BME280;2186;49.866;7.986;2022-12-10T11:03:25;99545.00;;;3.03;93.06
4346;BME280;2186;49.866;7.986;2022-12-10T11:05:52;99545.97;;;2.93;93.05
4346;BME280;2186;49.866;7.986;2022-12-10T11:08:20;99559.19;;;2.82;93.36
4346;BME280;2186;49.866;7.986;2022-12-10T11:10:51;99556.50;;;2.91;93.51
4346;BME280;2186;49.866;7.986;2022-12-10T11:13:26;99555.03;;;2.58;94.16
4346;BME280;2186;49.866;7.986;2022-12-10T11:16:00;99556.81;;;2.53;94.02
4346;BME280;2186;49.866;7.986;2022-12-10T11:18:35;99562.75;;;2.74;93.40
4346;BME280;2186;49.866;7.986;2022-12-10T11:21:16;99561.75;;;2.87;93.65
4346;BME280;2186;49.866;7.986;2022-12-10T11:23:45;99560.16;;;2.71;93.79
4346;BME280;2186;49.866;7.986;2022-12-10T11:26:21;99568.91;;;2.71;93.94
4346;BME280;2186;49.866;7.986;2022-12-10T11:32:05;99562.78;;;2.71;93.55
4346;BME280;2186;49.866;7.986;2022-12-10T11:34:55;99559.22;;;2.79;94.10
4346;BME280;2186;49.866;7.986;2022-12-10T11:37:49;99560.91;;;2.88;94.33
4346;BME280;2186;49.866;7.986;2022-12-10T11:46:24;99554.84;;;2.80;93.75
4346;BME280;2186;49.866;7.986;2022-12-10T11:54:10;99551.59;;;2.52;96.11
4346;BME280;2186;49.866;7.986;2022-12-10T11:56:48;99560.31;;;2.55;96.30
4346;BME280;2186;49.866;7.986;2022-12-10T11:59:23;99564.38;;;2.91;95.69
4346;BME280;2186;49.866;7.986;2022-12-10T12:05:18;99566.63;;;3.26;93.44
4346;BME280;2186;49.866;7.986;2022-12-10T12:13:37;99571.13;;;3.15;90.69
4346;BME280;2186;49.866;7.986;2022-12-10T12:16:12;99572.72;;;3.32;90.27
4346;BME280;2186;49.866;7.986;2022-12-10T12:18:51;99572.66;;;3.35;89.25
4346;BME280;2186;49.866;7.986;2022-12-10T12:21:19;99573.47;;;3.41;90.10
4346;BME280;2186;49.866;7.986;2022-12-10T12:23:50;99566.28;;;3.57;88.64
4346;BME280;2186;49.866;7.986;2022-12-10T12:26:30;99567.13;;;3.59;88.45
4346;BME280;2186;49.866;7.986;2022-12-10T12:29:16;99566.28;;;3.57;87.76
4346;BME280;2186;49.866;7.986;2022-12-10T12:34:25;99567.97;;;3.61;88.34
4346;BME280;2186;49.866;7.986;2022-12-10T12:36:53;99562.72;;;3.61;87.82
4346;BME280;2186;49.866;7.986;2022-12-10T12:42:02;99571.44;;;3.65;87.57
4346;BME280;2186;49.866;7.986;2022-12-10T12:47:22;99566.03;;;3.77;87.62
4346;BME280;2186;49.866;7.986;2022-12-10T12:49:53;99564.13;;;3.88;87.23
4346;BME280;2186;49.866;7.986;2022-12-10T12:52:42;99566.81;;;3.83;87.13
4346;BME280;2186;49.866;7.986;2022-12-10T12:55:20;99564.31;;;3.74;86.73
4346;BME280;2186;49.866;7.986;2022-12-10T12:57:53;99571.38;;;3.68;87.31
4346;BME280;2186;49.866;7.986;2022-12-10T13:00:22;99574.25;;;3.49;88.31
4346;BME280;2186;49.866;7.986;2022-12-10T13:03:39;99571.50;;;3.60;87.37
4346;BME280;2186;49.866;7.986;2022-12-10T13:06:21;99574.88;;;3.70;87.25
4346;BME280;2186;49.866;7.986;2022-12-10T13:11:18;99586.44;;;3.56;87.68
4346;BME280;2186;49.866;7.986;2022-12-10T13:25:14;99590.84;;;3.53;87.40
4346;BME280;2186;49.866;7.986;2022-12-10T13:27:42;99591.69;;;3.58;87.62
4346;BME280;2186;49.866;7.986;2022-12-10T13:30:31;99591.53;;;3.69;87.33
4346;BME280;2186;49.866;7.986;2022-12-10T13:33:09;99598.59;;;3.65;86.88
4346;BME280;2186;49.866;7.986;2022-12-10T13:35:50;99605.63;;;3.62;87.57
4346;BME280;2186;49.866;7.986;2022-12-10T13:38:25;99606.56;;;3.58;87.72
4346;BME280;2186;49.866;7.986;2022-12-10T13:41:03;99607.75;;;3.29;87.91
4346;BME280;2186;49.866;7.986;2022-12-10T13:43:57;99611.38;;;3.17;88.54
4346;BME280;2186;49.866;7.986;2022-12-10T13:47:24;99620.13;;;3.13;89.24
4346;BME280;2186;49.866;7.986;2022-12-10T13:49:56;99617.53;;;3.12;88.64
4346;BME280;2186;49.866;7.986;2022-12-10T13:52:31;99621.75;;;3.30;88.87
4346;BME280;2186;49.866;7.986;2022-12-10T13:55:04;99622.91;;;3.00;89.18
4346;BME280;2186;49.866;7.986;2022-12-10T14:00:34;99634.22;;;3.06;89.08
4346;BME280;2186;49.866;7.986;2022-12-10T14:06:23;99640.41;;;3.02;89.21
4346;BME280;2186;49.866;7.986;2022-12-10T14:09:03;99644.69;;;3.09;89.29
4346;BME280;2186;49.866;7.986;2022-12-10T14:11:47;99647.34;;;3.06;89.86
4346;BME280;2186;49.866;7.986;2022-12-10T14:14:23;99643.81;;;3.10;91.45
4346;BME280;2186;49.866;7.986;2022-12-10T14:16:51;99649.00;;;3.15;89.22
4346;BME280;2186;49.866;7.986;2022-12-10T14:19:25;99647.38;;;3.03;88.60
4346;BME280;2186;49.866;7.986;2022-12-10T14:21:53;99645.69;;;2.96;89.13
4346;BME280;2186;49.866;7.986;2022-12-10T14:24:28;99645.72;;;2.93;89.85
4346;BME280;2186;49.866;7.986;2022-12-10T14:27:01;99650.94;;;2.96;90.14
4346;BME280;2186;49.866;7.986;2022-12-10T14:29:29;99657.06;;;2.95;90.82
4346;BME280;2186;49.866;7.986;2022-12-10T14:31:56;99656.34;;;2.78;91.17
4346;BME280;2186;49.866;7.986;2022-12-10T14:34:25;99671.09;;;2.91;90.78
4346;BME280;2186;49.866;7.986;2022-12-10T14:36:55;99660.63;;;2.86;90.62
4346;BME280;2186;49.866;7.986;2022-12-10T14:39:28;99670.38;;;2.69;90.67
4346;BME280;2186;49.866;7.986;2022-12-10T14:41:58;99677.25;;;2.90;90.35
4346;BME280;2186;49.866;7.986;2022-12-10T14:44:25;99673.03;;;2.64;90.72
4346;BME280;2186;49.866;7.986;2022-12-10T14:47:03;99666.97;;;2.56;91.16
4346;BME280;2186;49.866;7.986;2022-12-10T14:49:29;99680.00;;;2.70;91.16
4346;BME280;2186;49.866;7.986;2022-12-10T14:51:56;99679.09;;;2.71;92.00
4346;BME280;2186;49.866;7.986;2022-12-10T14:54:28;99681.00;;;2.51;92.37
4346;BME280;2186;49.866;7.986;2022-12-10T14:57:00;99682.84;;;2.29;92.40
4346;BME280;2186;49.866;7.986;2022-12-10T14:59:36;99686.31;;;2.38;92.59
4346;BME280;2186;49.866;7.986;2022-12-10T15:02:26;99696.00;;;2.24;92.08
4346;BME280;2186;49.866;7.986;2022-12-10T15:04:53;99697.75;;;2.19;92.88